Time;durP1;ratioP1;P1;durP2;ratioP2;P2;SDS_P1;SDS_P2;PMS_P1;PMS_P2;Temp;Humidity;BMP_temperature;BMP_pressure;BME280_temperature;BME280_humidity;BME280_pressure;Samples;Min_cycle;Max_cycle;Signal;HPM_P1;HPM_P2
2022/01/22 00:01:10;;;;;;;;;;;6.00;99.90;;;;;;5077580;28;19984;-73
2022/01/22 00:03:38;;;;;;;;;;;5.90;99.90;;;;;;5096545;28;19912;-73
2022/01/22 00:06:04;;;;;;;;;;;6.00;99.90;;;;;;5095790;28;20287;-73
2022/01/22 00:08:30;;;;;;;;;;;6.00;99.90;;;;;;5095608;28;19956;-73
2022/01/22 00:10:56;;;;;;;;;;;6.00;99.90;;;;;;5094942;28;20021;-73
2022/01/22 00:16:25;;;;;;;;;;;6.00;99.90;;;;;;5031375;28;19920;-73
2022/01/22 00:18:51;;;;;;;;;;;6.00;99.90;;;;;;5038110;28;19921;-74
2022/01/22 00:21:16;;;;;;;;;;;6.00;99.90;;;;;;5060675;28;19994;-73
2022/01/22 00:23:48;;;;;;;;;;;6.00;99.90;;;;;;5094901;28;20057;-72
2022/01/22 00:26:14;;;;;;;;;;;6.00;99.90;;;;;;5095623;28;19912;-73
2022/01/22 00:28:39;;;;;;;;;;;6.00;99.90;;;;;;5094208;28;19920;-73
2022/01/22 00:31:05;;;;;;;;;;;5.90;99.90;;;;;;5086110;28;19919;-73
2022/01/22 00:33:30;;;;;;;;;;;5.90;99.90;;;;;;5075465;28;19920;-73
2022/01/22 00:35:59;;;;;;;;;;;6.00;99.90;;;;;;5093037;28;20212;-73
2022/01/22 00:38:24;;;;;;;;;;;5.90;99.90;;;;;;5093940;28;19969;-73
2022/01/22 00:40:51;;;;;;;;;;;5.90;99.90;;;;;;5093855;28;20025;-73
2022/01/22 00:43:17;;;;;;;;;;;5.90;99.90;;;;;;5091132;28;19916;-73
2022/01/22 00:45:43;;;;;;;;;;;5.90;99.90;;;;;;5094103;28;19912;-73
2022/01/22 00:48:08;;;;;;;;;;;5.90;99.90;;;;;;5092721;28;19912;-74
2022/01/22 00:50:34;;;;;;;;;;;5.90;99.90;;;;;;5093756;28;19916;-73
2022/01/22 00:52:59;;;;;;;;;;;5.90;99.90;;;;;;5074621;28;20303;-75
2022/01/22 00:55:25;;;;;;;;;;;5.90;99.90;;;;;;5092844;28;19923;-73
2022/01/22 00:57:50;;;;;;;;;;;5.90;99.90;;;;;;5092809;28;19959;-73
2022/01/22 01:00:17;;;;;;;;;;;5.90;99.90;;;;;;5093350;28;20103;-74
2022/01/22 01:02:43;;;;;;;;;;;5.90;99.90;;;;;;5090854;28;19923;-73
2022/01/22 01:05:10;;;;;;;;;;;5.90;99.90;;;;;;5093625;28;20624;-74
2022/01/22 01:07:35;;;;;;;;;;;5.90;99.90;;;;;;5093310;28;19923;-73
2022/01/22 01:10:01;;;;;;;;;;;5.80;99.90;;;;;;5093331;28;19908;-74
2022/01/22 01:12:28;;;;;;;;;;;5.80;99.90;;;;;;5093155;28;20226;-73
2022/01/22 01:15:17;;;;;;;;;;;5.80;99.90;;;;;;5092221;28;20699;-73
2022/01/22 01:34:10;;;;;;;;;;;5.80;99.90;;;;;;5094389;28;19931;-73
2022/01/22 01:36:35;;;;;;;;;;;5.70;99.90;;;;;;5094852;28;20257;-73
2022/01/22 01:39:03;;;;;;;;;;;5.70;99.90;;;;;;5095026;28;19995;-74
2022/01/22 01:42:18;;;;;;;;;;;5.70;99.90;;;;;;5093756;28;20001;-74
2022/01/22 01:44:15;;;;;;;;;;;5.70;99.90;;;;;;5082440;28;20219;-73
2022/01/22 01:46:44;;;;;;;;;;;5.70;99.90;;;;;;5094566;28;19912;-74
2022/01/22 01:49:10;;;;;;;;;;;5.70;99.90;;;;;;5075552;28;19912;-77
2022/01/22 01:51:36;;;;;;;;;;;5.70;99.90;;;;;;5087195;28;20006;-74
2022/01/22 01:59:23;;;;;;;;;;;5.70;99.90;;;;;;5094841;28;19919;-73
2022/01/22 02:01:49;;;;;;;;;;;5.70;99.90;;;;;;5094625;28;19920;-73
2022/01/22 02:04:14;;;;;;;;;;;5.70;99.90;;;;;;5094010;28;20307;-73
2022/01/22 02:06:40;;;;;;;;;;;5.70;99.90;;;;;;5094224;28;20269;-73
2022/01/22 02:09:09;;;;;;;;;;;5.70;99.90;;;;;;5095534;28;19958;-73
2022/01/22 02:11:36;;;;;;;;;;;5.70;99.90;;;;;;5080370;28;19920;-72
2022/01/22 02:14:09;;;;;;;;;;;5.70;99.90;;;;;;5095362;28;19920;-72
2022/01/22 02:24:50;;;;;;;;;;;5.70;99.90;;;;;;5097762;28;20454;-73
2022/01/22 02:27:16;;;;;;;;;;;5.70;99.90;;;;;;5097768;28;19920;-74
2022/01/22 02:29:41;;;;;;;;;;;5.70;99.90;;;;;;5097907;28;20211;-73
2022/01/22 02:34:43;;;;;;;;;;;5.70;99.90;;;;;;5077690;28;19920;-74
2022/01/22 02:37:14;;;;;;;;;;;5.70;99.90;;;;;;5071834;28;20050;-73
2022/01/22 02:39:57;;;;;;;;;;;5.70;99.90;;;;;;5072813;28;19913;-73
2022/01/22 02:42:27;;;;;;;;;;;5.70;99.90;;;;;;5069893;28;19960;-73
2022/01/22 02:44:53;;;;;;;;;;;5.70;99.90;;;;;;5088543;28;19923;-74
2022/01/22 02:47:19;;;;;;;;;;;5.70;99.90;;;;;;5076755;28;20003;-74
2022/01/22 02:49:45;;;;;;;;;;;5.70;99.90;;;;;;5064165;28;19917;-74
2022/01/22 02:52:11;;;;;;;;;;;5.70;99.90;;;;;;5073513;28;19999;-74
2022/01/22 02:54:37;;;;;;;;;;;5.70;99.90;;;;;;5072175;28;20342;-73
2022/01/22 02:57:03;;;;;;;;;;;5.70;99.90;;;;;;5074276;28;19959;-74
2022/01/22 02:59:29;;;;;;;;;;;5.80;99.90;;;;;;5069451;28;19921;-74
2022/01/22 03:01:54;;;;;;;;;;;5.80;99.90;;;;;;5077116;28;19916;-74
2022/01/22 03:04:20;;;;;;;;;;;5.80;99.90;;;;;;5068650;28;19947;-74
2022/01/22 03:06:47;;;;;;;;;;;5.80;99.90;;;;;;5076631;28;19944;-74
2022/01/22 03:09:15;;;;;;;;;;;5.80;99.90;;;;;;5077161;28;19914;-74
2022/01/22 03:11:57;;;;;;;;;;;5.70;99.90;;;;;;5076677;28;19913;-74
2022/01/22 03:22:20;;;;;;;;;;;5.70;99.90;;;;;;5074700;28;19952;-74
2022/01/22 03:27:32;;;;;;;;;;;5.70;99.90;;;;;;5076740;28;19919;-74
2022/01/22 03:29:57;;;;;;;;;;;5.70;99.90;;;;;;5076913;28;19923;-74
2022/01/22 03:32:26;;;;;;;;;;;5.80;99.90;;;;;;5075315;28;20007;-74
2022/01/22 03:34:57;;;;;;;;;;;5.70;99.90;;;;;;5075945;28;19916;-74
2022/01/22 03:37:24;;;;;;;;;;;5.80;99.90;;;;;;5062037;28;19921;-74
2022/01/22 03:39:49;;;;;;;;;;;5.80;99.90;;;;;;5074684;28;19920;-74
2022/01/22 03:42:15;;;;;;;;;;;5.80;99.90;;;;;;5071923;28;19923;-74
2022/01/22 03:44:40;;;;;;;;;;;5.80;99.90;;;;;;5070905;28;19915;-74
2022/01/22 03:47:06;;;;;;;;;;;5.80;99.90;;;;;;5072492;28;19917;-74
2022/01/22 03:49:32;;;;;;;;;;;5.80;99.90;;;;;;5076179;28;19908;-74
2022/01/22 03:51:57;;;;;;;;;;;5.90;99.90;;;;;;5075639;28;19917;-74
2022/01/22 03:54:23;;;;;;;;;;;5.90;99.90;;;;;;5072898;28;19916;-74
2022/01/22 03:56:48;;;;;;;;;;;5.90;99.90;;;;;;5075839;28;19916;-74
2022/01/22 03:59:15;;;;;;;;;;;5.90;99.90;;;;;;5069058;28;19916;-74
2022/01/22 04:04:11;;;;;;;;;;;5.90;99.90;;;;;;5073440;28;19928;-74
2022/01/22 04:09:07;;;;;;;;;;;5.90;99.90;;;;;;5072486;28;19913;-74
2022/01/22 04:11:36;;;;;;;;;;;6.00;99.90;;;;;;5053239;28;19921;-74
2022/01/22 04:14:04;;;;;;;;;;;5.90;99.90;;;;;;5067189;28;19919;-74
2022/01/22 04:16:31;;;;;;;;;;;5.90;99.90;;;;;;5075385;28;19916;-74
2022/01/22 04:27:12;;;;;;;;;;;5.90;99.90;;;;;;5073749;28;20003;-74
2022/01/22 04:29:37;;;;;;;;;;;6.00;99.90;;;;;;5069049;28;20252;-74
2022/01/22 04:32:03;;;;;;;;;;;6.00;99.90;;;;;;5073248;28;19975;-74
2022/01/22 04:34:29;;;;;;;;;;;6.00;99.90;;;;;;5069229;28;19935;-74
2022/01/22 04:36:55;;;;;;;;;;;6.00;99.90;;;;;;5057672;28;19935;-75
2022/01/22 04:39:22;;;;;;;;;;;6.00;99.90;;;;;;5074060;28;19923;-74
2022/01/22 04:41:48;;;;;;;;;;;5.90;99.90;;;;;;5071965;28;19913;-74
2022/01/22 04:44:14;;;;;;;;;;;6.00;99.90;;;;;;5069164;28;20496;-75
2022/01/22 04:49:18;;;;;;;;;;;5.90;99.90;;;;;;5074463;28;19927;-74
2022/01/22 04:57:13;;;;;;;;;;;5.90;99.90;;;;;;5075289;28;19923;-73
2022/01/22 04:59:38;;;;;;;;;;;6.00;99.90;;;;;;5068985;28;19943;-73
2022/01/22 05:02:04;;;;;;;;;;;6.00;99.90;;;;;;5074392;28;19960;-73
2022/01/22 05:04:30;;;;;;;;;;;6.00;99.90;;;;;;5070222;28;19913;-73
2022/01/22 05:06:55;;;;;;;;;;;6.00;99.90;;;;;;5064819;28;20378;-73
2022/01/22 05:09:21;;;;;;;;;;;6.00;99.90;;;;;;5066620;28;19916;-73
2022/01/22 05:11:47;;;;;;;;;;;6.00;99.90;;;;;;5065326;28;19924;-73
2022/01/22 05:14:12;;;;;;;;;;;6.00;99.90;;;;;;5072138;28;20432;-73
2022/01/22 05:16:38;;;;;;;;;;;6.00;99.90;;;;;;5074732;28;21348;-73
2022/01/22 05:19:46;;;;;;;;;;;6.00;99.90;;;;;;5072485;28;19917;-73
2022/01/22 05:22:01;;;;;;;;;;;6.00;99.90;;;;;;5060742;28;19927;-73
2022/01/22 05:24:31;;;;;;;;;;;6.00;99.90;;;;;;5060850;28;20136;-74
2022/01/22 05:37:27;;;;;;;;;;;5.90;99.90;;;;;;5074426;28;20309;-74
2022/01/22 05:39:53;;;;;;;;;;;5.90;99.90;;;;;;5074751;28;19913;-74
2022/01/22 05:42:18;;;;;;;;;;;5.90;99.90;;;;;;5074627;28;20211;-74
2022/01/22 05:44:44;;;;;;;;;;;5.90;99.90;;;;;;5077403;28;19947;-74
2022/01/22 05:47:11;;;;;;;;;;;5.90;99.90;;;;;;5078225;28;19919;-74
2022/01/22 05:49:40;;;;;;;;;;;5.90;99.90;;;;;;5072597;28;20290;-74
2022/01/22 05:52:08;;;;;;;;;;;6.00;99.90;;;;;;5077459;28;19908;-74
2022/01/22 06:00:23;;;;;;;;;;;6.10;99.90;;;;;;5056152;28;19916;-74
2022/01/22 06:02:49;;;;;;;;;;;6.10;99.90;;;;;;5072899;28;20323;-74
2022/01/22 06:05:14;;;;;;;;;;;6.10;99.90;;;;;;5068219;28;19963;-73
2022/01/22 06:07:40;;;;;;;;;;;6.10;99.90;;;;;;5076832;28;19912;-74
2022/01/22 06:10:16;;;;;;;;;;;6.10;99.90;;;;;;5077019;28;19920;-73
2022/01/22 06:15:08;;;;;;;;;;;6.10;99.90;;;;;;5074717;28;19944;-73
2022/01/22 06:17:34;;;;;;;;;;;6.10;99.90;;;;;;5076110;28;19999;-74
2022/01/22 06:19:59;;;;;;;;;;;6.10;99.90;;;;;;5076346;28;19917;-74
2022/01/22 06:22:25;;;;;;;;;;;6.10;99.90;;;;;;5075901;28;19916;-74
2022/01/22 06:24:50;;;;;;;;;;;6.10;99.90;;;;;;5076081;28;19913;-73
2022/01/22 06:27:16;;;;;;;;;;;6.10;99.90;;;;;;5045297;28;19916;-73
2022/01/22 06:29:42;;;;;;;;;;;6.20;99.90;;;;;;5066440;28;19917;-73
2022/01/22 06:32:07;;;;;;;;;;;6.10;99.90;;;;;;5074171;28;19924;-73
2022/01/22 06:34:33;;;;;;;;;;;6.20;99.90;;;;;;5066962;28;19913;-73
2022/01/22 06:36:58;;;;;;;;;;;6.20;99.90;;;;;;5076490;28;19924;-73
2022/01/22 06:39:24;;;;;;;;;;;6.20;99.90;;;;;;5076605;28;20057;-73
2022/01/22 06:41:50;;;;;;;;;;;6.10;99.90;;;;;;5072024;28;19917;-73
2022/01/22 06:44:15;;;;;;;;;;;6.20;99.90;;;;;;5076781;28;19919;-73
2022/01/22 06:46:41;;;;;;;;;;;6.20;99.90;;;;;;5062617;28;20039;-73
2022/01/22 06:49:07;;;;;;;;;;;6.20;99.90;;;;;;5077030;28;19919;-74
2022/01/22 06:51:33;;;;;;;;;;;6.20;99.90;;;;;;5076674;28;19909;-74
2022/01/22 06:54:00;;;;;;;;;;;6.20;99.90;;;;;;5072127;28;19924;-75
2022/01/22 06:56:28;;;;;;;;;;;6.20;99.90;;;;;;5068752;28;19912;-78
2022/01/22 06:58:53;;;;;;;;;;;6.20;99.90;;;;;;5076661;28;19914;-73
2022/01/22 07:01:19;;;;;;;;;;;6.20;99.90;;;;;;5077163;28;20011;-74
2022/01/22 07:03:45;;;;;;;;;;;6.20;99.90;;;;;;5077100;28;20257;-73
2022/01/22 07:06:10;;;;;;;;;;;6.30;99.90;;;;;;5073427;28;19908;-75
2022/01/22 07:08:36;;;;;;;;;;;6.30;99.90;;;;;;5071319;28;20539;-73
2022/01/22 07:11:01;;;;;;;;;;;6.20;99.90;;;;;;5075010;28;19913;-73
2022/01/22 07:13:27;;;;;;;;;;;6.30;99.90;;;;;;5075580;28;19916;-73
2022/01/22 07:15:52;;;;;;;;;;;6.20;99.90;;;;;;5076026;28;19908;-73
2022/01/22 07:18:18;;;;;;;;;;;6.30;99.90;;;;;;5075191;28;20315;-73
2022/01/22 07:20:44;;;;;;;;;;;6.30;99.90;;;;;;5076164;28;20079;-73
2022/01/22 07:23:21;;;;;;;;;;;6.30;99.90;;;;;;5075865;28;19916;-73
2022/01/22 07:25:46;;;;;;;;;;;6.30;99.90;;;;;;5068678;28;19909;-73
2022/01/22 07:28:13;;;;;;;;;;;6.20;99.90;;;;;;5081257;28;19912;-72
2022/01/22 07:30:39;;;;;;;;;;;6.20;99.90;;;;;;5075767;28;19912;-72
2022/01/22 07:33:05;;;;;;;;;;;6.30;99.90;;;;;;5073043;28;19924;-72
2022/01/22 07:35:33;;;;;;;;;;;6.30;99.90;;;;;;5069898;28;20253;-72
2022/01/22 07:38:00;;;;;;;;;;;6.30;99.90;;;;;;5060259;28;19920;-74
2022/01/22 07:40:26;;;;;;;;;;;6.30;99.90;;;;;;5082887;28;20373;-73
2022/01/22 07:42:52;;;;;;;;;;;6.30;99.90;;;;;;5072962;28;19947;-73
2022/01/22 07:45:17;;;;;;;;;;;6.30;99.90;;;;;;5072301;28;19962;-73
2022/01/22 07:47:43;;;;;;;;;;;6.20;99.90;;;;;;5068920;28;20189;-72
2022/01/22 07:50:08;;;;;;;;;;;6.20;99.90;;;;;;5076329;28;19974;-73
2022/01/22 07:52:34;;;;;;;;;;;6.20;99.90;;;;;;5075486;28;20346;-72
2022/01/22 07:55:00;;;;;;;;;;;6.30;99.90;;;;;;5072259;28;20319;-73
2022/01/22 07:57:25;;;;;;;;;;;6.20;99.90;;;;;;5075734;28;19912;-73
2022/01/22 07:59:51;;;;;;;;;;;6.20;99.90;;;;;;5062903;28;19916;-73
2022/01/22 08:02:16;;;;;;;;;;;6.30;99.90;;;;;;5075284;28;20211;-73
2022/01/22 08:04:42;;;;;;;;;;;6.30;99.90;;;;;;5086281;28;19909;-73
2022/01/22 08:07:08;;;;;;;;;;;6.30;99.90;;;;;;5074752;28;20334;-74
2022/01/22 08:09:34;;;;;;;;;;;6.30;99.90;;;;;;5072197;28;19912;-72
2022/01/22 08:12:00;;;;;;;;;;;6.30;99.90;;;;;;5074887;28;20015;-72
2022/01/22 08:14:26;;;;;;;;;;;6.30;99.90;;;;;;5072578;28;19920;-72
2022/01/22 08:16:51;;;;;;;;;;;6.20;99.90;;;;;;5064444;28;19917;-73
2022/01/22 08:19:17;;;;;;;;;;;6.20;99.90;;;;;;5066730;28;20244;-72
2022/01/22 08:21:44;;;;;;;;;;;6.20;99.90;;;;;;5086433;28;19935;-72
2022/01/22 08:24:11;;;;;;;;;;;6.30;99.90;;;;;;5074601;28;20064;-73
2022/01/22 08:26:41;;;;;;;;;;;6.30;99.90;;;;;;5074481;28;19909;-74
2022/01/22 08:29:06;;;;;;;;;;;6.30;99.90;;;;;;5074381;28;19916;-73
2022/01/22 08:36:43;;;;;;;;;;;6.30;99.90;;;;;;5083499;28;19934;-73
2022/01/22 08:39:09;;;;;;;;;;;6.30;99.90;;;;;;5075037;28;20585;-73
2022/01/22 08:41:35;;;;;;;;;;;6.30;99.90;;;;;;5074467;28;19923;-74
2022/01/22 08:44:01;;;;;;;;;;;6.30;99.90;;;;;;5074019;28;19909;-73
2022/01/22 08:46:27;;;;;;;;;;;6.30;99.90;;;;;;5071928;28;19919;-74
2022/01/22 08:48:53;;;;;;;;;;;6.30;99.90;;;;;;5067659;28;19913;-73
2022/01/22 08:51:18;;;;;;;;;;;6.30;99.90;;;;;;5074309;28;19912;-72
2022/01/22 08:53:44;;;;;;;;;;;6.30;99.90;;;;;;5074351;28;19995;-73
2022/01/22 08:56:10;;;;;;;;;;;6.30;99.90;;;;;;5076106;28;20319;-72
2022/01/22 08:58:36;;;;;;;;;;;6.40;99.90;;;;;;5081833;28;19952;-73
2022/01/22 09:01:01;;;;;;;;;;;6.30;99.90;;;;;;5062641;28;19916;-73
2022/01/22 09:03:27;;;;;;;;;;;6.30;99.90;;;;;;5075737;28;20386;-73
2022/01/22 09:05:54;;;;;;;;;;;6.40;99.90;;;;;;5073098;28;20312;-73
2022/01/22 09:08:20;;;;;;;;;;;6.40;99.90;;;;;;5072865;28;19955;-75
2022/01/22 09:10:46;;;;;;;;;;;6.30;99.90;;;;;;5073503;28;19966;-72
2022/01/22 09:13:12;;;;;;;;;;;6.30;99.90;;;;;;5073781;28;19912;-72
2022/01/22 09:15:38;;;;;;;;;;;6.30;99.90;;;;;;5076044;28;20218;-73
2022/01/22 09:18:04;;;;;;;;;;;6.40;99.90;;;;;;5071390;28;19913;-72
2022/01/22 09:23:10;;;;;;;;;;;6.40;99.90;;;;;;5072454;28;19916;-73
2022/01/22 09:25:36;;;;;;;;;;;6.40;99.90;;;;;;5072881;28;19908;-74
2022/01/22 09:28:01;;;;;;;;;;;6.40;99.90;;;;;;5072994;28;19928;-73
2022/01/22 09:30:27;;;;;;;;;;;6.30;99.90;;;;;;5069645;28;19948;-73
2022/01/22 09:32:53;;;;;;;;;;;6.40;99.90;;;;;;5068820;28;20222;-73
2022/01/22 09:35:18;;;;;;;;;;;6.40;99.90;;;;;;5068029;28;20223;-74
2022/01/22 09:37:44;;;;;;;;;;;6.40;99.90;;;;;;5081351;28;19916;-74
2022/01/22 09:40:10;;;;;;;;;;;6.40;99.90;;;;;;5069273;28;20255;-74
2022/01/22 09:42:35;;;;;;;;;;;6.40;99.90;;;;;;5070297;28;19916;-73
2022/01/22 09:45:02;;;;;;;;;;;6.50;99.90;;;;;;5073346;28;19912;-74
2022/01/22 09:47:27;;;;;;;;;;;6.50;99.90;;;;;;5079709;28;20223;-73
2022/01/22 09:49:53;;;;;;;;;;;6.50;99.90;;;;;;5077485;28;19921;-74
2022/01/22 09:52:18;;;;;;;;;;;6.50;99.90;;;;;;5073815;28;19916;-73
2022/01/22 09:54:44;;;;;;;;;;;6.50;99.90;;;;;;5083476;28;19916;-73
2022/01/22 09:57:10;;;;;;;;;;;6.60;99.90;;;;;;5065332;28;19918;-74
2022/01/22 09:59:36;;;;;;;;;;;6.60;99.90;;;;;;5068005;28;19920;-73
2022/01/22 10:02:30;;;;;;;;;;;6.60;99.90;;;;;;5070978;28;20307;-74
2022/01/22 10:04:56;;;;;;;;;;;6.70;99.90;;;;;;5026478;28;19919;-73
2022/01/22 10:07:22;;;;;;;;;;;6.60;99.90;;;;;;5031274;28;19913;-77
2022/01/22 10:10:14;;;;;;;;;;;6.70;99.90;;;;;;5031788;28;20023;-75
2022/01/22 10:12:44;;;;;;;;;;;6.70;99.90;;;;;;5028214;28;19917;-74
2022/01/22 10:15:16;;;;;;;;;;;6.70;99.90;;;;;;5031506;28;19913;-75
2022/01/22 10:17:46;;;;;;;;;;;6.80;99.90;;;;;;5028961;28;19920;-73
2022/01/22 10:20:21;;;;;;;;;;;6.80;99.90;;;;;;5031485;28;19916;-74
2022/01/22 10:22:47;;;;;;;;;;;6.80;99.90;;;;;;5031071;28;19917;-74
2022/01/22 10:25:19;;;;;;;;;;;6.80;99.90;;;;;;5032242;28;19920;-72
2022/01/22 10:27:54;;;;;;;;;;;6.80;99.90;;;;;;5030867;28;19955;-73
2022/01/22 10:30:20;;;;;;;;;;;6.90;99.90;;;;;;5014857;28;19948;-73
2022/01/22 10:35:23;;;;;;;;;;;6.90;99.90;;;;;;5035494;28;19935;-73
2022/01/22 10:37:59;;;;;;;;;;;6.90;99.90;;;;;;5034315;28;19999;-73
2022/01/22 10:40:27;;;;;;;;;;;7.00;99.90;;;;;;5033828;28;19917;-76
2022/01/22 10:43:16;;;;;;;;;;;7.00;99.90;;;;;;5053065;28;19920;-74
2022/01/22 10:45:42;;;;;;;;;;;7.10;99.90;;;;;;5049272;28;19951;-74
2022/01/22 10:48:14;;;;;;;;;;;7.10;99.90;;;;;;5062745;28;20338;-74
2022/01/22 10:50:39;;;;;;;;;;;7.20;99.90;;;;;;5065680;28;20350;-74
2022/01/22 10:53:05;;;;;;;;;;;7.30;99.90;;;;;;5064380;28;19916;-75
2022/01/22 10:55:31;;;;;;;;;;;7.40;99.90;;;;;;5056042;28;19922;-75
2022/01/22 10:58:09;;;;;;;;;;;7.40;99.90;;;;;;5062025;28;19912;-74
2022/01/22 11:00:35;;;;;;;;;;;7.40;99.90;;;;;;5057483;28;19916;-74
2022/01/22 11:03:20;;;;;;;;;;;7.40;99.90;;;;;;5059337;28;19923;-76
2022/01/22 11:05:46;;;;;;;;;;;7.40;99.90;;;;;;5051263;28;20350;-74
2022/01/22 11:08:13;;;;;;;;;;;7.40;99.90;;;;;;5076401;28;19909;-74
2022/01/22 11:10:40;;;;;;;;;;;7.40;99.90;;;;;;5066613;28;19959;-74
2022/01/22 11:13:05;;;;;;;;;;;7.40;99.90;;;;;;5054348;28;19920;-73
2022/01/22 11:15:31;;;;;;;;;;;7.40;99.90;;;;;;5054350;28;19916;-74
2022/01/22 11:17:58;;;;;;;;;;;7.40;99.90;;;;;;5067106;28;19916;-73
2022/01/22 11:20:24;;;;;;;;;;;7.30;99.90;;;;;;5055156;28;20189;-74
2022/01/22 11:22:51;;;;;;;;;;;7.40;99.90;;;;;;5055028;28;20379;-74
2022/01/22 11:25:16;;;;;;;;;;;7.40;99.90;;;;;;5055412;28;20295;-73
2022/01/22 11:27:42;;;;;;;;;;;7.50;99.90;;;;;;5055654;28;19927;-74
2022/01/22 11:30:09;;;;;;;;;;;7.50;99.90;;;;;;5053131;28;20023;-74
2022/01/22 11:32:43;;;;;;;;;;;7.50;99.90;;;;;;5066440;28;19931;-73
2022/01/22 11:35:09;;;;;;;;;;;7.50;99.90;;;;;;5092580;28;19969;-73
2022/01/22 11:37:53;;;;;;;;;;;7.60;99.90;;;;;;5092303;28;19916;-74
2022/01/22 11:40:23;;;;;;;;;;;7.60;99.90;;;;;;5092198;28;20630;-73
2022/01/22 11:45:29;;;;;;;;;;;7.60;99.90;;;;;;5094109;28;19908;-74
2022/01/22 11:48:10;;;;;;;;;;;7.70;99.90;;;;;;5075472;28;19916;-74
2022/01/22 11:50:36;;;;;;;;;;;7.70;99.90;;;;;;5092339;28;19962;-73
2022/01/22 11:53:21;;;;;;;;;;;7.80;99.90;;;;;;5094211;28;19912;-73
2022/01/22 11:56:05;;;;;;;;;;;7.70;99.90;;;;;;5094010;28;19912;-74
2022/01/22 11:58:31;;;;;;;;;;;7.70;99.90;;;;;;5073024;28;19920;-74
2022/01/22 12:00:56;;;;;;;;;;;7.70;99.90;;;;;;5093101;28;19927;-73
2022/01/22 12:03:22;;;;;;;;;;;7.70;99.90;;;;;;5075894;28;19920;-73
2022/01/22 12:05:53;;;;;;;;;;;7.70;99.90;;;;;;5091456;28;19923;-73
2022/01/22 12:08:20;;;;;;;;;;;7.70;99.90;;;;;;5090928;28;20218;-73
2022/01/22 12:16:14;;;;;;;;;;;7.60;99.90;;;;;;5093853;28;19977;-74
2022/01/22 12:18:45;;;;;;;;;;;7.60;99.90;;;;;;5075992;28;19916;-74
2022/01/22 12:21:34;;;;;;;;;;;7.60;99.90;;;;;;5074158;28;20219;-74
2022/01/22 12:24:01;;;;;;;;;;;7.60;99.90;;;;;;5078595;28;20218;-74
2022/01/22 12:26:37;;;;;;;;;;;7.50;99.90;;;;;;5094384;28;19908;-74
2022/01/22 12:29:22;;;;;;;;;;;7.60;99.90;;;;;;5091268;28;19912;-74
2022/01/22 12:32:07;;;;;;;;;;;7.60;99.90;;;;;;5093779;28;19924;-73
2022/01/22 12:34:51;;;;;;;;;;;7.60;99.90;;;;;;5093194;28;19908;-73
2022/01/22 12:37:18;;;;;;;;;;;7.50;99.90;;;;;;5092348;28;19912;-74
2022/01/22 12:39:49;;;;;;;;;;;7.40;99.90;;;;;;5092634;28;20015;-74
2022/01/22 12:42:23;;;;;;;;;;;7.50;99.90;;;;;;5093967;28;19920;-74
2022/01/22 12:44:56;;;;;;;;;;;7.50;99.90;;;;;;5092624;28;19919;-74
2022/01/22 12:47:22;;;;;;;;;;;7.50;99.90;;;;;;5094312;28;20025;-75
2022/01/22 12:50:07;;;;;;;;;;;7.50;99.90;;;;;;5093721;28;19962;-74
2022/01/22 12:52:34;;;;;;;;;;;7.60;99.90;;;;;;5092196;28;20575;-73
2022/01/22 12:55:01;;;;;;;;;;;7.60;99.90;;;;;;5075779;28;19996;-73
2022/01/22 12:57:28;;;;;;;;;;;7.70;99.90;;;;;;5093370;28;19912;-72
2022/01/22 13:00:01;;;;;;;;;;;7.70;99.90;;;;;;5092251;28;19916;-72
2022/01/22 13:02:46;;;;;;;;;;;7.70;99.90;;;;;;5090931;28;20310;-72
2022/01/22 13:05:15;;;;;;;;;;;7.60;99.90;;;;;;5092899;28;19912;-72
2022/01/22 13:07:46;;;;;;;;;;;7.50;99.90;;;;;;5092772;28;19908;-72
2022/01/22 13:10:12;;;;;;;;;;;7.50;99.90;;;;;;5090102;28;19927;-73
2022/01/22 13:12:42;;;;;;;;;;;7.50;99.90;;;;;;5088429;28;19916;-73
2022/01/22 13:15:10;;;;;;;;;;;7.50;99.90;;;;;;5094704;28;19916;-72
2022/01/22 13:17:36;;;;;;;;;;;7.40;99.90;;;;;;5091934;28;20297;-71
2022/01/22 13:20:02;;;;;;;;;;;7.40;99.90;;;;;;5090322;28;19916;-72
2022/01/22 13:22:31;;;;;;;;;;;7.30;99.90;;;;;;5091089;28;19920;-72
2022/01/22 13:25:04;;;;;;;;;;;7.20;99.90;;;;;;5093396;28;19920;-71
2022/01/22 13:27:31;;;;;;;;;;;7.20;99.90;;;;;;5091991;28;19922;-72
2022/01/22 13:29:57;;;;;;;;;;;7.30;99.90;;;;;;5093366;28;19912;-72
2022/01/22 13:32:44;;;;;;;;;;;7.30;99.90;;;;;;5091109;28;19927;-73
2022/01/22 13:49:12;;;;;;;;;;;7.10;99.90;;;;;;5055334;28;19919;-72
2022/01/22 13:51:38;;;;;;;;;;;7.10;99.90;;;;;;5053969;28;20255;-73
2022/01/22 13:54:04;;;;;;;;;;;7.00;99.90;;;;;;5054243;28;19924;-73
2022/01/22 13:56:50;;;;;;;;;;;7.00;99.90;;;;;;5054234;28;19917;-72
2022/01/22 13:59:21;;;;;;;;;;;7.00;99.90;;;;;;5056210;28;19913;-71
2022/01/22 14:02:05;;;;;;;;;;;6.90;99.90;;;;;;5055321;28;20300;-72
2022/01/22 14:04:48;;;;;;;;;;;6.90;99.90;;;;;;5038851;28;19945;-73
2022/01/22 14:07:13;;;;;;;;;;;6.80;99.90;;;;;;5049122;28;19913;-72
2022/01/22 14:09:49;;;;;;;;;;;6.80;99.90;;;;;;5057675;28;19917;-72
2022/01/22 14:12:15;;;;;;;;;;;6.80;99.90;;;;;;5049027;28;19916;-73
2022/01/22 14:15:15;;;;;;;;;;;6.80;99.90;;;;;;5058736;28;19916;-72
2022/01/22 14:18:05;;;;;;;;;;;6.90;99.90;;;;;;5043294;28;20006;-73
2022/01/22 14:20:31;;;;;;;;;;;6.90;99.90;;;;;;5086815;28;20340;-72
2022/01/22 14:22:58;;;;;;;;;;;6.90;99.90;;;;;;5092307;28;19920;-72
2022/01/22 14:25:24;;;;;;;;;;;6.90;99.90;;;;;;5091834;28;19938;-73
2022/01/22 14:27:58;;;;;;;;;;;6.90;99.90;;;;;;5088954;28;20010;-73
2022/01/22 14:30:34;;;;;;;;;;;6.90;99.90;;;;;;5092063;28;19923;-72
2022/01/22 14:33:00;;;;;;;;;;;7.00;99.90;;;;;;5092423;28;20278;-73
2022/01/22 14:35:26;;;;;;;;;;;7.10;99.90;;;;;;5093731;28;20007;-73
2022/01/22 14:37:54;;;;;;;;;;;7.10;99.90;;;;;;5089267;28;19916;-73
2022/01/22 14:46:06;;;;;;;;;;;7.20;99.90;;;;;;5092155;28;19927;-72
2022/01/22 14:48:31;;;;;;;;;;;7.20;99.90;;;;;;5092737;28;19916;-73
2022/01/22 14:50:57;;;;;;;;;;;7.20;99.90;;;;;;5076411;28;19920;-73
2022/01/22 14:53:22;;;;;;;;;;;7.20;99.90;;;;;;5094409;28;19923;-73
2022/01/22 14:55:49;;;;;;;;;;;7.20;99.90;;;;;;5094711;28;19919;-73
2022/01/22 14:58:15;;;;;;;;;;;7.20;99.90;;;;;;5094503;28;19916;-73
2022/01/22 15:00:41;;;;;;;;;;;7.20;99.90;;;;;;5094335;28;20572;-73
2022/01/22 15:03:06;;;;;;;;;;;7.20;99.90;;;;;;5094412;28;19912;-73
2022/01/22 15:05:32;;;;;;;;;;;7.20;99.90;;;;;;5094290;28;19934;-73
2022/01/22 15:07:58;;;;;;;;;;;7.20;99.90;;;;;;5092695;28;20315;-73
2022/01/22 15:10:24;;;;;;;;;;;7.20;99.90;;;;;;5091457;28;20052;-73
2022/01/22 15:12:50;;;;;;;;;;;7.10;99.90;;;;;;5093687;28;20206;-73
2022/01/22 15:15:19;;;;;;;;;;;7.10;99.90;;;;;;5093204;28;19912;-73
2022/01/22 15:17:54;;;;;;;;;;;7.00;99.90;;;;;;5092573;28;20226;-73
2022/01/22 15:20:22;;;;;;;;;;;7.00;99.90;;;;;;5075433;28;19909;-73
2022/01/22 15:22:48;;;;;;;;;;;7.00;99.90;;;;;;5093595;28;19920;-73
2022/01/22 15:25:13;;;;;;;;;;;7.00;99.90;;;;;;5093368;28;19920;-73
2022/01/22 15:27:39;;;;;;;;;;;7.00;99.90;;;;;;5075078;28;20003;-73
2022/01/22 15:30:12;;;;;;;;;;;7.00;99.90;;;;;;5093385;28;20010;-73
2022/01/22 15:35:11;;;;;;;;;;;6.90;99.90;;;;;;5093416;28;19924;-74
2022/01/22 15:37:38;;;;;;;;;;;6.90;99.90;;;;;;5092973;28;19959;-73
2022/01/22 15:40:05;;;;;;;;;;;6.90;99.90;;;;;;5064951;28;20333;-75
2022/01/22 15:42:31;;;;;;;;;;;7.00;99.90;;;;;;5092770;28;20057;-73
2022/01/22 15:44:56;;;;;;;;;;;7.00;99.90;;;;;;5090359;28;20010;-73
2022/01/22 15:47:22;;;;;;;;;;;6.90;99.90;;;;;;5086448;28;19920;-73
2022/01/22 15:49:54;;;;;;;;;;;6.90;99.90;;;;;;5091981;28;19920;-73
2022/01/22 15:52:20;;;;;;;;;;;6.80;99.90;;;;;;5093341;28;19919;-74
2022/01/22 15:54:45;;;;;;;;;;;6.80;99.90;;;;;;5089879;28;20298;-73
2022/01/22 15:57:13;;;;;;;;;;;6.80;99.90;;;;;;5081096;28;20357;-73
2022/01/22 15:59:38;;;;;;;;;;;6.80;99.90;;;;;;5081674;28;19920;-73
2022/01/22 16:02:04;;;;;;;;;;;6.80;99.90;;;;;;5077606;28;19980;-73
2022/01/22 16:04:29;;;;;;;;;;;6.80;99.90;;;;;;5091646;28;19926;-75
2022/01/22 16:09:21;;;;;;;;;;;6.80;99.90;;;;;;5092999;28;20295;-73
2022/01/22 16:11:47;;;;;;;;;;;6.80;99.90;;;;;;5092026;28;20049;-74
2022/01/22 16:14:13;;;;;;;;;;;6.80;99.90;;;;;;5081612;28;20689;-73
2022/01/22 16:16:40;;;;;;;;;;;6.80;99.90;;;;;;5092868;28;19916;-73
2022/01/22 16:19:06;;;;;;;;;;;6.80;99.90;;;;;;5091682;28;19939;-74
2022/01/22 16:21:31;;;;;;;;;;;6.80;99.90;;;;;;5092315;28;20307;-73
2022/01/22 16:23:58;;;;;;;;;;;6.80;99.90;;;;;;5090915;28;19916;-73
2022/01/22 16:26:23;;;;;;;;;;;6.80;99.90;;;;;;5088754;28;19973;-73
2022/01/22 16:28:49;;;;;;;;;;;6.70;99.90;;;;;;5086289;28;19923;-74
2022/01/22 16:31:14;;;;;;;;;;;6.70;99.90;;;;;;5081776;28;19919;-73
2022/01/22 16:33:40;;;;;;;;;;;6.70;99.90;;;;;;5073123;28;20349;-73
2022/01/22 16:36:06;;;;;;;;;;;6.60;99.90;;;;;;5075328;28;20647;-73
2022/01/22 16:38:31;;;;;;;;;;;6.50;99.90;;;;;;5086974;28;19920;-73
2022/01/22 16:40:57;;;;;;;;;;;6.50;99.90;;;;;;5081994;28;19916;-73
2022/01/22 16:43:29;;;;;;;;;;;6.50;99.90;;;;;;5087677;28;20005;-73
2022/01/22 16:46:22;;;;;;;;;;;6.40;99.90;;;;;;5087088;28;20593;-73